Řízení letového provozu České republiky
Letiste: LKNA Aktualizace: 21.08.2019 07:00:34  UTC
 METAR LKNA 21.08. 07:00 ...
METAR LKNA 210700Z 31011KT 9999 BKN012 BKN120 15/13 Q1027 NOSIG RMK GRN GRN=
 TAF LKNA 21.08. 05:00 ...
TAF LKNA 210500Z 2106/2206 31012KT 9999 BKN035      TEMPO 2106/2112 32014G26KT 7000 RA BKN020      PROB30 TEMPO 2106/2108 BKN010      BECMG 2116/2118 01008KT CAVOK=